sensor_id;sensor_type;location;lat;lon;timestamp;pressure;altitude;pressure_sealevel;temperature;humidity
78206;BME280;67480;48.920;12.880;2023-06-19T00:02:20;96829.16;;;16.74;42.68
78206;BME280;67480;48.920;12.880;2023-06-19T00:04:45;96826.38;;;16.71;42.51
78206;BME280;67480;48.920;12.880;2023-06-19T00:07:11;96825.88;;;16.65;42.08
78206;BME280;67480;48.920;12.880;2023-06-19T00:09:36;96817.66;;;16.62;43.13
78206;BME280;67480;48.920;12.880;2023-06-19T00:12:02;96826.44;;;16.55;43.22
78206;BME280;67480;48.920;12.880;2023-06-19T00:14:29;96822.44;;;16.49;43.25
78206;BME280;67480;48.920;12.880;2023-06-19T00:16:54;96816.56;;;16.47;43.21
78206;BME280;67480;48.920;12.880;2023-06-19T00:19:20;96816.13;;;16.45;43.75
78206;BME280;67480;48.920;12.880;2023-06-19T00:21:45;96816.47;;;16.43;43.37
78206;BME280;67480;48.920;12.880;2023-06-19T00:24:11;96813.00;;;16.43;43.11
78206;BME280;67480;48.920;12.880;2023-06-19T00:26:36;96812.91;;;16.39;43.49
78206;BME280;67480;48.920;12.880;2023-06-19T00:29:02;96808.75;;;16.45;43.00
78206;BME280;67480;48.920;12.880;2023-06-19T00:31:29;96810.13;;;16.55;42.90
78206;BME280;67480;48.920;12.880;2023-06-19T00:33:54;96806.69;;;16.58;43.03
78206;BME280;67480;48.920;12.880;2023-06-19T00:36:20;96801.38;;;16.62;42.82
78206;BME280;67480;48.920;12.880;2023-06-19T00:38:47;96800.56;;;16.61;42.80
78206;BME280;67480;48.920;12.880;2023-06-19T00:41:13;96806.56;;;16.70;42.52
78206;BME280;67480;48.920;12.880;2023-06-19T00:43:39;96806.00;;;16.81;41.78
78206;BME280;67480;48.920;12.880;2023-06-19T00:46:05;96802.34;;;16.92;41.61
78206;BME280;67480;48.920;12.880;2023-06-19T00:48:32;96795.16;;;17.04;41.74
78206;BME280;67480;48.920;12.880;2023-06-19T00:50:59;96799.81;;;17.03;41.60
78206;BME280;67480;48.920;12.880;2023-06-19T00:53:25;96799.31;;;17.17;41.66
78206;BME280;67480;48.920;12.880;2023-06-19T00:55:51;96792.66;;;17.15;41.98
78206;BME280;67480;48.920;12.880;2023-06-19T00:58:19;96792.22;;;17.13;42.22
78206;BME280;67480;48.920;12.880;2023-06-19T01:00:45;96788.13;;;17.22;41.34
78206;BME280;67480;48.920;12.880;2023-06-19T01:03:10;96787.91;;;17.31;41.12
78206;BME280;67480;48.920;12.880;2023-06-19T01:05:35;96786.84;;;17.36;41.42
78206;BME280;67480;48.920;12.880;2023-06-19T01:10:42;96780.84;;;17.26;41.71
78206;BME280;67480;48.920;12.880;2023-06-19T01:13:19;96785.84;;;17.24;41.70
78206;BME280;67480;48.920;12.880;2023-06-19T01:15:47;96787.34;;;17.22;41.38
78206;BME280;67480;48.920;12.880;2023-06-19T01:18:13;96783.41;;;17.19;41.72
78206;BME280;67480;48.920;12.880;2023-06-19T01:20:40;96782.13;;;17.13;42.50
78206;BME280;67480;48.920;12.880;2023-06-19T01:23:09;96779.31;;;17.06;43.03
78206;BME280;67480;48.920;12.880;2023-06-19T01:25:34;96773.66;;;16.95;43.14
78206;BME280;67480;48.920;12.880;2023-06-19T01:28:01;96781.59;;;16.84;43.14
78206;BME280;67480;48.920;12.880;2023-06-19T01:30:27;96783.84;;;16.79;42.93
78206;BME280;67480;48.920;12.880;2023-06-19T01:35:29;96791.13;;;16.74;43.73
78206;BME280;67480;48.920;12.880;2023-06-19T01:37:55;96784.06;;;16.70;43.67
78206;BME280;67480;48.920;12.880;2023-06-19T01:40:21;96787.91;;;16.69;43.63
78206;BME280;67480;48.920;12.880;2023-06-19T01:42:51;96790.91;;;16.64;43.75
78206;BME280;67480;48.920;12.880;2023-06-19T01:45:18;96784.63;;;16.60;43.45
78206;BME280;67480;48.920;12.880;2023-06-19T01:47:43;96784.84;;;16.51;43.66
78206;BME280;67480;48.920;12.880;2023-06-19T01:50:10;96779.34;;;16.47;43.15
78206;BME280;67480;48.920;12.880;2023-06-19T01:52:37;96780.03;;;16.44;43.88
78206;BME280;67480;48.920;12.880;2023-06-19T01:55:03;96788.53;;;16.43;43.71
78206;BME280;67480;48.920;12.880;2023-06-19T01:57:28;96793.41;;;16.17;46.67
78206;BME280;67480;48.920;12.880;2023-06-19T01:59:53;96794.22;;;16.02;47.47
78206;BME280;67480;48.920;12.880;2023-06-19T02:02:19;96808.34;;;15.92;47.96
78206;BME280;67480;48.920;12.880;2023-06-19T02:04:44;96805.81;;;15.83;47.22
78206;BME280;67480;48.920;12.880;2023-06-19T02:07:10;96808.00;;;15.77;47.09
78206;BME280;67480;48.920;12.880;2023-06-19T02:09:37;96808.63;;;15.71;46.25
78206;BME280;67480;48.920;12.880;2023-06-19T02:12:03;96806.84;;;15.78;46.62
78206;BME280;67480;48.920;12.880;2023-06-19T02:14:28;96810.09;;;15.84;46.36
78206;BME280;67480;48.920;12.880;2023-06-19T02:16:53;96814.91;;;15.91;46.77
78206;BME280;67480;48.920;12.880;2023-06-19T02:19:19;96806.50;;;15.96;46.58
78206;BME280;67480;48.920;12.880;2023-06-19T02:21:44;96802.88;;;16.08;46.67
78206;BME280;67480;48.920;12.880;2023-06-19T02:24:09;96809.47;;;16.07;47.42
78206;BME280;67480;48.920;12.880;2023-06-19T02:26:35;96808.06;;;16.13;47.15
78206;BME280;67480;48.920;12.880;2023-06-19T02:29:00;96804.78;;;16.23;46.81
78206;BME280;67480;48.920;12.880;2023-06-19T02:31:26;96809.41;;;16.39;46.35
78206;BME280;67480;48.920;12.880;2023-06-19T02:33:51;96810.41;;;16.50;46.66
78206;BME280;67480;48.920;12.880;2023-06-19T02:36:16;96815.38;;;16.64;45.41
78206;BME280;67480;48.920;12.880;2023-06-19T02:38:50;96815.97;;;16.73;44.61
78206;BME280;67480;48.920;12.880;2023-06-19T02:41:16;96822.09;;;16.89;44.72
78206;BME280;67480;48.920;12.880;2023-06-19T02:43:42;96817.22;;;16.99;44.57
78206;BME280;67480;48.920;12.880;2023-06-19T02:46:08;96818.91;;;17.07;44.43
78206;BME280;67480;48.920;12.880;2023-06-19T02:48:33;96817.19;;;17.18;43.85
78206;BME280;67480;48.920;12.880;2023-06-19T02:50:59;96817.78;;;17.27;43.51
78206;BME280;67480;48.920;12.880;2023-06-19T02:53:24;96814.47;;;17.38;43.01
78206;BME280;67480;48.920;12.880;2023-06-19T02:55:49;96815.38;;;17.45;42.83
78206;BME280;67480;48.920;12.880;2023-06-19T02:58:15;96820.88;;;17.49;42.91
78206;BME280;67480;48.920;12.880;2023-06-19T03:00:40;96810.59;;;17.62;42.76
78206;BME280;67480;48.920;12.880;2023-06-19T03:03:06;96819.25;;;17.68;43.20
78206;BME280;67480;48.920;12.880;2023-06-19T03:05:31;96816.63;;;17.75;43.21
78206;BME280;67480;48.920;12.880;2023-06-19T03:07:56;96822.19;;;17.82;42.75
78206;BME280;67480;48.920;12.880;2023-06-19T03:10:22;96821.16;;;17.90;42.46
78206;BME280;67480;48.920;12.880;2023-06-19T03:12:47;96824.34;;;17.96;42.68
78206;BME280;67480;48.920;12.880;2023-06-19T03:15:13;96826.00;;;18.00;43.08
78206;BME280;67480;48.920;12.880;2023-06-19T03:17:38;96824.09;;;18.05;43.16
78206;BME280;67480;48.920;12.880;2023-06-19T03:20:04;96823.72;;;18.06;43.33
78206;BME280;67480;48.920;12.880;2023-06-19T03:22:31;96822.63;;;18.11;43.12
78206;BME280;67480;48.920;12.880;2023-06-19T03:24:56;96821.16;;;18.13;42.95
78206;BME280;67480;48.920;12.880;2023-06-19T03:27:22;96826.28;;;18.18;43.40
78206;BME280;67480;48.920;12.880;2023-06-19T03:29:47;96825.19;;;18.23;43.12
78206;BME280;67480;48.920;12.880;2023-06-19T03:32:13;96829.09;;;18.26;43.41
78206;BME280;67480;48.920;12.880;2023-06-19T03:34:38;96836.94;;;18.31;43.27
78206;BME280;67480;48.920;12.880;2023-06-19T03:37:04;96845.25;;;18.38;43.04
78206;BME280;67480;48.920;12.880;2023-06-19T03:39:29;96856.13;;;18.38;43.53
78206;BME280;67480;48.920;12.880;2023-06-19T03:41:55;96855.41;;;18.41;43.30
78206;BME280;67480;48.920;12.880;2023-06-19T03:44:20;96863.22;;;18.43;43.55
78206;BME280;67480;48.920;12.880;2023-06-19T03:46:46;96867.94;;;18.46;43.37
78206;BME280;67480;48.920;12.880;2023-06-19T03:49:12;96873.38;;;18.46;44.40
78206;BME280;67480;48.920;12.880;2023-06-19T03:51:38;96877.25;;;18.45;43.99
78206;BME280;67480;48.920;12.880;2023-06-19T03:54:03;96881.16;;;18.21;45.68
78206;BME280;67480;48.920;12.880;2023-06-19T03:56:29;96886.16;;;18.15;44.28
78206;BME280;67480;48.920;12.880;2023-06-19T03:58:54;96883.28;;;18.08;45.68
78206;BME280;67480;48.920;12.880;2023-06-19T04:01:19;96902.28;;;18.04;46.52
78206;BME280;67480;48.920;12.880;2023-06-19T04:03:45;96901.88;;;18.02;46.16
78206;BME280;67480;48.920;12.880;2023-06-19T04:06:10;96906.03;;;17.96;46.75
78206;BME280;67480;48.920;12.880;2023-06-19T04:08:36;96907.53;;;17.93;45.33
78206;BME280;67480;48.920;12.880;2023-06-19T04:11:01;96905.47;;;17.87;46.10
78206;BME280;67480;48.920;12.880;2023-06-19T04:13:26;96912.09;;;17.86;46.30
78206;BME280;67480;48.920;12.880;2023-06-19T04:15:52;96903.47;;;17.83;47.37
78206;BME280;67480;48.920;12.880;2023-06-19T04:18:18;96908.88;;;17.80;47.91
78206;BME280;67480;48.920;12.880;2023-06-19T04:20:43;96906.16;;;17.80;47.66
78206;BME280;67480;48.920;12.880;2023-06-19T04:23:09;96905.63;;;17.94;48.51
78206;BME280;67480;48.920;12.880;2023-06-19T04:25:35;96903.38;;;17.99;48.97
78206;BME280;67480;48.920;12.880;2023-06-19T04:28:00;96912.31;;;18.00;48.16
78206;BME280;67480;48.920;12.880;2023-06-19T04:30:29;96906.50;;;18.01;47.50
78206;BME280;67480;48.920;12.880;2023-06-19T04:32:54;96911.22;;;18.05;49.13
78206;BME280;67480;48.920;12.880;2023-06-19T04:35:22;96911.59;;;18.03;47.94
78206;BME280;67480;48.920;12.880;2023-06-19T04:37:49;96916.72;;;17.85;49.67
78206;BME280;67480;48.920;12.880;2023-06-19T04:40:17;96928.19;;;17.94;49.83
78206;BME280;67480;48.920;12.880;2023-06-19T04:42:42;96923.28;;;18.04;49.43
78206;BME280;67480;48.920;12.880;2023-06-19T04:45:08;96929.00;;;17.98;49.25
78206;BME280;67480;48.920;12.880;2023-06-19T04:47:37;96932.19;;;18.00;49.38
78206;BME280;67480;48.920;12.880;2023-06-19T04:50:04;96935.72;;;18.05;49.44
78206;BME280;67480;48.920;12.880;2023-06-19T04:52:30;96940.09;;;18.09;48.43
78206;BME280;67480;48.920;12.880;2023-06-19T04:54:58;96945.84;;;18.04;48.36
78206;BME280;67480;48.920;12.880;2023-06-19T04:57:24;96953.59;;;17.79;48.49
78206;BME280;67480;48.920;12.880;2023-06-19T04:59:49;96954.16;;;17.69;48.22
78206;BME280;67480;48.920;12.880;2023-06-19T05:02:14;96962.38;;;17.72;47.93
78206;BME280;67480;48.920;12.880;2023-06-19T05:04:40;96972.84;;;17.70;49.80
78206;BME280;67480;48.920;12.880;2023-06-19T05:07:08;96972.72;;;17.63;48.34
78206;BME280;67480;48.920;12.880;2023-06-19T05:09:33;96973.81;;;17.58;48.03
78206;BME280;67480;48.920;12.880;2023-06-19T05:11:59;96964.50;;;17.40;48.66
78206;BME280;67480;48.920;12.880;2023-06-19T05:14:24;96964.13;;;17.41;48.69
78206;BME280;67480;48.920;12.880;2023-06-19T05:16:49;96964.72;;;17.51;48.76
78206;BME280;67480;48.920;12.880;2023-06-19T05:19:15;96951.78;;;17.67;48.54
78206;BME280;67480;48.920;12.880;2023-06-19T05:21:40;96954.22;;;17.72;48.31
78206;BME280;67480;48.920;12.880;2023-06-19T05:24:06;96958.06;;;17.91;47.58
78206;BME280;67480;48.920;12.880;2023-06-19T05:26:32;96964.66;;;18.13;47.33
78206;BME280;67480;48.920;12.880;2023-06-19T05:28:57;96966.50;;;18.28;46.61
78206;BME280;67480;48.920;12.880;2023-06-19T05:31:23;96962.97;;;18.28;48.02
78206;BME280;67480;48.920;12.880;2023-06-19T05:33:48;96954.22;;;18.38;46.88
78206;BME280;67480;48.920;12.880;2023-06-19T05:36:14;96956.13;;;18.37;47.44
78206;BME280;67480;48.920;12.880;2023-06-19T05:38:39;96952.75;;;18.44;46.91
78206;BME280;67480;48.920;12.880;2023-06-19T05:41:05;96954.44;;;18.52;46.85
78206;BME280;67480;48.920;12.880;2023-06-19T05:43:32;96960.75;;;18.60;46.96
78206;BME280;67480;48.920;12.880;2023-06-19T05:45:57;96958.63;;;18.73;46.59
78206;BME280;67480;48.920;12.880;2023-06-19T05:48:25;96956.00;;;18.80;46.38
78206;BME280;67480;48.920;12.880;2023-06-19T05:50:51;96958.47;;;18.89;46.47
78206;BME280;67480;48.920;12.880;2023-06-19T05:53:16;96957.38;;;18.93;46.21
78206;BME280;67480;48.920;12.880;2023-06-19T05:55:42;96973.44;;;18.99;48.04
78206;BME280;67480;48.920;12.880;2023-06-19T05:58:08;96971.41;;;18.96;47.91
78206;BME280;67480;48.920;12.880;2023-06-19T06:00:33;96972.47;;;18.87;48.67
78206;BME280;67480;48.920;12.880;2023-06-19T06:02:59;96972.13;;;18.92;48.45
78206;BME280;67480;48.920;12.880;2023-06-19T06:05:27;96975.72;;;18.97;49.05
78206;BME280;67480;48.920;12.880;2023-06-19T06:07:54;96982.47;;;19.03;49.13
78206;BME280;67480;48.920;12.880;2023-06-19T06:10:21;96985.22;;;19.06;49.08
78206;BME280;67480;48.920;12.880;2023-06-19T06:12:47;96991.09;;;19.08;50.00
78206;BME280;67480;48.920;12.880;2023-06-19T06:15:12;96994.34;;;19.18;49.24
78206;BME280;67480;48.920;12.880;2023-06-19T06:17:38;96996.72;;;19.19;49.40
78206;BME280;67480;48.920;12.880;2023-06-19T06:20:03;96997.19;;;19.28;50.31
78206;BME280;67480;48.920;12.880;2023-06-19T06:22:40;96996.50;;;19.35;50.28
78206;BME280;67480;48.920;12.880;2023-06-19T06:25:06;96993.53;;;19.47;50.05
78206;BME280;67480;48.920;12.880;2023-06-19T06:27:32;96995.19;;;19.56;50.67
78206;BME280;67480;48.920;12.880;2023-06-19T06:29:58;96994.09;;;19.60;51.51
78206;BME280;67480;48.920;12.880;2023-06-19T06:32:24;96998.13;;;19.74;51.60
78206;BME280;67480;48.920;12.880;2023-06-19T06:34:49;97006.84;;;19.83;51.15
78206;BME280;67480;48.920;12.880;2023-06-19T06:37:15;97014.06;;;20.02;51.05
78206;BME280;67480;48.920;12.880;2023-06-19T06:39:42;97013.31;;;20.05;50.61
78206;BME280;67480;48.920;12.880;2023-06-19T06:42:08;97012.50;;;20.01;50.34
78206;BME280;67480;48.920;12.880;2023-06-19T06:44:33;97015.22;;;20.01;50.51
78206;BME280;67480;48.920;12.880;2023-06-19T06:46:58;97018.34;;;19.99;50.67
78206;BME280;67480;48.920;12.880;2023-06-19T06:49:24;97009.41;;;20.02;50.96
78206;BME280;67480;48.920;12.880;2023-06-19T06:51:49;97008.38;;;20.18;50.68
78206;BME280;67480;48.920;12.880;2023-06-19T06:54:15;97016.28;;;20.27;51.32
78206;BME280;67480;48.920;12.880;2023-06-19T06:56:40;97012.22;;;20.54;50.47
78206;BME280;67480;48.920;12.880;2023-06-19T06:59:08;97018.28;;;20.82;50.07
78206;BME280;67480;48.920;12.880;2023-06-19T07:01:33;97026.31;;;21.12;49.44
78206;BME280;67480;48.920;12.880;2023-06-19T07:03:59;97026.09;;;21.39;48.60
78206;BME280;67480;48.920;12.880;2023-06-19T07:06:24;97017.22;;;21.71;47.70
78206;BME280;67480;48.920;12.880;2023-06-19T07:08:50;97011.88;;;22.14;46.61
78206;BME280;67480;48.920;12.880;2023-06-19T07:11:15;97015.84;;;22.49;45.64
78206;BME280;67480;48.920;12.880;2023-06-19T07:13:40;97017.41;;;22.82;45.18
78206;BME280;67480;48.920;12.880;2023-06-19T07:16:07;97016.59;;;23.14;44.41
78206;BME280;67480;48.920;12.880;2023-06-19T07:18:32;97020.03;;;23.51;44.03
78206;BME280;67480;48.920;12.880;2023-06-19T07:21:00;97030.75;;;24.08;43.39
78206;BME280;67480;48.920;12.880;2023-06-19T07:23:26;97028.78;;;24.68;42.65
78206;BME280;67480;48.920;12.880;2023-06-19T07:25:51;97029.69;;;25.03;41.47
78206;BME280;67480;48.920;12.880;2023-06-19T07:28:16;97027.78;;;25.35;40.77
78206;BME280;67480;48.920;12.880;2023-06-19T07:30:42;97023.47;;;25.34;40.97
78206;BME280;67480;48.920;12.880;2023-06-19T07:33:08;97030.38;;;25.15;41.03
78206;BME280;67480;48.920;12.880;2023-06-19T07:35:34;97030.09;;;25.02;41.82
78206;BME280;67480;48.920;12.880;2023-06-19T07:37:59;97028.59;;;24.93;41.51
78206;BME280;67480;48.920;12.880;2023-06-19T07:40:24;97027.41;;;24.95;42.45
78206;BME280;67480;48.920;12.880;2023-06-19T07:42:50;97032.41;;;25.07;42.18
78206;BME280;67480;48.920;12.880;2023-06-19T07:45:15;97034.50;;;25.34;42.06
78206;BME280;67480;48.920;12.880;2023-06-19T07:47:40;97035.81;;;25.60;41.78
78206;BME280;67480;48.920;12.880;2023-06-19T07:50:06;97045.06;;;25.39;41.86
78206;BME280;67480;48.920;12.880;2023-06-19T07:52:31;97045.22;;;25.24;40.52
78206;BME280;67480;48.920;12.880;2023-06-19T07:54:57;97043.00;;;25.08;42.69
78206;BME280;67480;48.920;12.880;2023-06-19T07:57:25;97048.78;;;25.21;41.43
78206;BME280;67480;48.920;12.880;2023-06-19T07:59:52;97045.97;;;25.25;41.21
78206;BME280;67480;48.920;12.880;2023-06-19T08:02:18;97050.84;;;24.61;42.21
78206;BME280;67480;48.920;12.880;2023-06-19T08:04:43;97048.22;;;23.65;43.62
78206;BME280;67480;48.920;12.880;2023-06-19T08:07:08;97044.28;;;23.70;42.12
78206;BME280;67480;48.920;12.880;2023-06-19T08:09:34;97054.09;;;24.49;41.43
78206;BME280;67480;48.920;12.880;2023-06-19T08:12:00;97055.06;;;25.22;40.38
78206;BME280;67480;48.920;12.880;2023-06-19T08:14:26;97056.84;;;25.77;38.48
78206;BME280;67480;48.920;12.880;2023-06-19T08:16:51;97061.31;;;26.29;38.44
78206;BME280;67480;48.920;12.880;2023-06-19T08:19:16;97056.44;;;26.10;38.53
78206;BME280;67480;48.920;12.880;2023-06-19T08:21:42;97058.94;;;25.97;38.49
78206;BME280;67480;48.920;12.880;2023-06-19T08:24:07;97049.16;;;27.01;37.29
78206;BME280;67480;48.920;12.880;2023-06-19T08:26:32;97052.81;;;27.62;35.17
78206;BME280;67480;48.920;12.880;2023-06-19T08:28:58;97056.53;;;28.12;34.05
78206;BME280;67480;48.920;12.880;2023-06-19T08:31:23;97048.22;;;28.81;33.53
78206;BME280;67480;48.920;12.880;2023-06-19T08:33:54;97057.19;;;29.18;31.84
78206;BME280;67480;48.920;12.880;2023-06-19T08:36:19;97053.47;;;29.54;30.98
78206;BME280;67480;48.920;12.880;2023-06-19T08:38:45;97051.09;;;29.40;32.11
78206;BME280;67480;48.920;12.880;2023-06-19T08:41:15;97049.41;;;29.13;31.76
78206;BME280;67480;48.920;12.880;2023-06-19T08:43:40;97047.53;;;28.77;30.87
78206;BME280;67480;48.920;12.880;2023-06-19T08:46:10;97057.19;;;28.36;32.64
78206;BME280;67480;48.920;12.880;2023-06-19T08:48:36;97046.63;;;28.31;32.92
78206;BME280;67480;48.920;12.880;2023-06-19T08:51:03;97040.78;;;28.62;31.43
78206;BME280;67480;48.920;12.880;2023-06-19T08:53:31;97046.59;;;29.75;30.82
78206;BME280;67480;48.920;12.880;2023-06-19T08:55:57;97042.88;;;29.36;30.75
78206;BME280;67480;48.920;12.880;2023-06-19T08:58:26;97047.25;;;29.50;31.76
78206;BME280;67480;48.920;12.880;2023-06-19T09:00:51;97046.97;;;30.03;30.43
78206;BME280;67480;48.920;12.880;2023-06-19T09:03:20;97049.50;;;30.62;30.78
78206;BME280;67480;48.920;12.880;2023-06-19T09:05:47;97041.81;;;31.04;29.63
78206;BME280;67480;48.920;12.880;2023-06-19T09:08:16;97051.47;;;29.84;30.20
78206;BME280;67480;48.920;12.880;2023-06-19T09:10:42;97044.38;;;29.96;30.33
78206;BME280;67480;48.920;12.880;2023-06-19T09:13:08;97042.47;;;29.80;29.99
78206;BME280;67480;48.920;12.880;2023-06-19T09:15:37;97036.50;;;29.23;31.04
78206;BME280;67480;48.920;12.880;2023-06-19T09:18:05;97048.78;;;29.68;30.53
78206;BME280;67480;48.920;12.880;2023-06-19T09:20:32;97037.25;;;28.08;32.29
78206;BME280;67480;48.920;12.880;2023-06-19T09:22:58;97046.94;;;28.86;31.58
78206;BME280;67480;48.920;12.880;2023-06-19T09:25:24;97044.56;;;29.01;32.10
78206;BME280;67480;48.920;12.880;2023-06-19T09:27:52;97041.91;;;29.43;31.13
78206;BME280;67480;48.920;12.880;2023-06-19T09:30:17;97049.66;;;29.64;28.66
78206;BME280;67480;48.920;12.880;2023-06-19T09:32:43;97062.38;;;30.04;29.29
78206;BME280;67480;48.920;12.880;2023-06-19T09:35:09;97058.59;;;29.98;30.37
78206;BME280;67480;48.920;12.880;2023-06-19T09:37:34;97058.84;;;30.03;29.31
78206;BME280;67480;48.920;12.880;2023-06-19T09:40:04;97064.75;;;30.83;27.91
78206;BME280;67480;48.920;12.880;2023-06-19T09:42:41;97061.19;;;30.82;27.90
78206;BME280;67480;48.920;12.880;2023-06-19T09:45:12;97071.16;;;30.92;27.72
78206;BME280;67480;48.920;12.880;2023-06-19T09:47:44;97069.19;;;31.63;27.08
78206;BME280;67480;48.920;12.880;2023-06-19T09:50:15;97064.53;;;31.60;26.86
78206;BME280;67480;48.920;12.880;2023-06-19T09:52:42;97070.22;;;31.56;27.25
78206;BME280;67480;48.920;12.880;2023-06-19T09:55:08;97080.25;;;31.19;27.67
78206;BME280;67480;48.920;12.880;2023-06-19T09:57:35;97075.56;;;30.42;28.02
78206;BME280;67480;48.920;12.880;2023-06-19T10:00:05;97060.56;;;29.84;27.52
78206;BME280;67480;48.920;12.880;2023-06-19T10:02:42;97065.47;;;29.93;28.15
78206;BME280;67480;48.920;12.880;2023-06-19T10:05:08;97070.56;;;29.95;28.34
78206;BME280;67480;48.920;12.880;2023-06-19T10:07:41;97073.44;;;29.33;27.70
78206;BME280;67480;48.920;12.880;2023-06-19T10:10:09;97070.63;;;29.65;27.77
78206;BME280;67480;48.920;12.880;2023-06-19T10:12:46;97072.75;;;29.74;27.29
78206;BME280;67480;48.920;12.880;2023-06-19T10:15:20;97075.16;;;31.74;25.69
78206;BME280;67480;48.920;12.880;2023-06-19T10:17:53;97079.75;;;32.22;25.19
78206;BME280;67480;48.920;12.880;2023-06-19T10:20:28;97078.09;;;30.36;27.37
78206;BME280;67480;48.920;12.880;2023-06-19T10:23:08;97077.81;;;29.17;28.55
78206;BME280;67480;48.920;12.880;2023-06-19T10:25:36;97083.75;;;29.32;29.08
78206;BME280;67480;48.920;12.880;2023-06-19T10:28:03;97076.41;;;29.25;30.03
78206;BME280;67480;48.920;12.880;2023-06-19T10:30:32;97083.28;;;30.22;29.08
78206;BME280;67480;48.920;12.880;2023-06-19T10:32:58;97076.97;;;30.21;28.39
78206;BME280;67480;48.920;12.880;2023-06-19T10:35:24;97085.66;;;30.36;27.97
78206;BME280;67480;48.920;12.880;2023-06-19T10:37:50;97090.31;;;30.78;28.10
78206;BME280;67480;48.920;12.880;2023-06-19T10:40:24;97086.19;;;30.44;27.27
78206;BME280;67480;48.920;12.880;2023-06-19T10:42:50;97080.19;;;30.19;28.54
78206;BME280;67480;48.920;12.880;2023-06-19T10:45:16;97089.06;;;30.53;27.72
78206;BME280;67480;48.920;12.880;2023-06-19T10:47:42;97085.75;;;30.19;27.01
78206;BME280;67480;48.920;12.880;2023-06-19T10:50:18;97084.31;;;29.86;26.87
78206;BME280;67480;48.920;12.880;2023-06-19T10:52:47;97074.63;;;28.86;28.18
78206;BME280;67480;48.920;12.880;2023-06-19T10:55:14;97070.63;;;28.70;28.16
78206;BME280;67480;48.920;12.880;2023-06-19T10:57:44;97070.81;;;29.58;27.50
78206;BME280;67480;48.920;12.880;2023-06-19T11:00:10;97070.69;;;29.33;28.43
78206;BME280;67480;48.920;12.880;2023-06-19T11:02:42;97063.13;;;29.79;26.95
78206;BME280;67480;48.920;12.880;2023-06-19T11:05:11;97067.09;;;30.33;27.54
78206;BME280;67480;48.920;12.880;2023-06-19T11:07:37;97069.63;;;30.91;26.14
78206;BME280;67480;48.920;12.880;2023-06-19T11:10:22;97060.13;;;31.15;26.10
78206;BME280;67480;48.920;12.880;2023-06-19T11:12:58;97062.47;;;31.73;25.47
78206;BME280;67480;48.920;12.880;2023-06-19T11:15:31;97056.63;;;31.80;24.30
78206;BME280;67480;48.920;12.880;2023-06-19T11:17:58;97059.94;;;32.19;24.97
78206;BME280;67480;48.920;12.880;2023-06-19T11:20:24;97060.97;;;32.85;24.68
78206;BME280;67480;48.920;12.880;2023-06-19T11:22:55;97064.78;;;33.46;24.93
78206;BME280;67480;48.920;12.880;2023-06-19T11:25:35;97055.09;;;34.03;24.48
78206;BME280;67480;48.920;12.880;2023-06-19T11:28:01;97064.50;;;34.33;23.77
78206;BME280;67480;48.920;12.880;2023-06-19T11:30:32;97061.44;;;34.55;23.58
78206;BME280;67480;48.920;12.880;2023-06-19T11:32:58;97061.53;;;34.70;24.34
78206;BME280;67480;48.920;12.880;2023-06-19T11:35:32;97056.03;;;34.52;23.70
78206;BME280;67480;48.920;12.880;2023-06-19T11:37:59;97048.72;;;34.12;23.74
78206;BME280;67480;48.920;12.880;2023-06-19T11:40:24;97054.69;;;33.21;23.19
78206;BME280;67480;48.920;12.880;2023-06-19T11:42:53;97047.84;;;32.95;24.88
78206;BME280;67480;48.920;12.880;2023-06-19T11:45:19;97048.75;;;32.91;26.06
78206;BME280;67480;48.920;12.880;2023-06-19T11:47:47;97049.72;;;32.88;24.14
78206;BME280;67480;48.920;12.880;2023-06-19T11:50:14;97054.06;;;32.49;25.47
78206;BME280;67480;48.920;12.880;2023-06-19T11:52:44;97044.28;;;32.13;24.24
78206;BME280;67480;48.920;12.880;2023-06-19T11:55:15;97048.72;;;32.32;24.94
78206;BME280;67480;48.920;12.880;2023-06-19T11:57:41;97040.91;;;32.49;25.33
78206;BME280;67480;48.920;12.880;2023-06-19T12:00:16;97040.03;;;32.71;25.40
78206;BME280;67480;48.920;12.880;2023-06-19T12:02:43;97043.34;;;32.79;24.81
78206;BME280;67480;48.920;12.880;2023-06-19T12:05:09;97034.44;;;32.62;25.20
78206;BME280;67480;48.920;12.880;2023-06-19T12:07:38;97027.94;;;32.65;24.91
78206;BME280;67480;48.920;12.880;2023-06-19T12:10:04;97033.78;;;33.35;25.31
78206;BME280;67480;48.920;12.880;2023-06-19T12:12:35;97030.81;;;33.20;24.74
78206;BME280;67480;48.920;12.880;2023-06-19T12:15:00;97026.19;;;33.17;24.02
78206;BME280;67480;48.920;12.880;2023-06-19T12:17:26;97021.63;;;32.24;25.22
78206;BME280;67480;48.920;12.880;2023-06-19T12:19:51;97021.69;;;32.42;24.45
78206;BME280;67480;48.920;12.880;2023-06-19T12:22:18;97017.25;;;32.23;24.54
78206;BME280;67480;48.920;12.880;2023-06-19T12:24:44;97020.16;;;31.78;24.95
78206;BME280;67480;48.920;12.880;2023-06-19T12:27:09;97026.03;;;31.80;25.75
78206;BME280;67480;48.920;12.880;2023-06-19T12:29:35;97012.50;;;31.70;25.62
78206;BME280;67480;48.920;12.880;2023-06-19T12:32:01;97014.03;;;31.71;26.22
78206;BME280;67480;48.920;12.880;2023-06-19T12:34:28;97010.22;;;31.99;26.61
78206;BME280;67480;48.920;12.880;2023-06-19T12:36:53;97012.03;;;32.25;26.23
78206;BME280;67480;48.920;12.880;2023-06-19T12:39:20;97010.41;;;32.46;26.24
78206;BME280;67480;48.920;12.880;2023-06-19T12:41:45;97010.56;;;32.42;25.68
78206;BME280;67480;48.920;12.880;2023-06-19T12:44:11;96999.97;;;32.28;26.07
78206;BME280;67480;48.920;12.880;2023-06-19T12:46:44;97003.09;;;31.98;27.30
78206;BME280;67480;48.920;12.880;2023-06-19T12:49:09;96992.88;;;32.27;26.20
78206;BME280;67480;48.920;12.880;2023-06-19T12:51:35;97007.66;;;32.55;26.28
78206;BME280;67480;48.920;12.880;2023-06-19T12:54:00;97002.09;;;32.64;27.27